Time;durP1;ratioP1;P1;durP2;ratioP2;P2;SDS_P1;SDS_P2;PMS_P1;PMS_P2;Temp;Humidity;BMP_temperature;BMP_pressure;BME280_temperature;BME280_humidity;BME280_pressure;Samples;Min_cycle;Max_cycle;Signal;HPM_P1;HPM_P2
2021/12/22 00:01:04;;;;;;;2.22;1.30;;;;;;;;;;5042258;28;20025;-32
2021/12/22 00:03:30;;;;;;;2.05;1.58;;;;;;;;;;5042655;28;20024;-32
2021/12/22 00:05:55;;;;;;;1.45;1.15;;;;;;;;;;5042762;28;20039;-29
2021/12/22 00:08:22;;;;;;;2.35;1.40;;;;;;;;;;5042647;28;20033;-32
2021/12/22 00:10:49;;;;;;;2.22;1.52;;;;;;;;;;5042916;28;20057;-32
2021/12/22 00:13:14;;;;;;;2.03;1.50;;;;;;;;;;5042907;28;20108;-30
2021/12/22 00:15:40;;;;;;;2.20;1.60;;;;;;;;;;5042695;28;20021;-34
2021/12/22 00:18:05;;;;;;;2.15;1.80;;;;;;;;;;5040753;28;20710;-30
2021/12/22 00:20:31;;;;;;;1.70;1.40;;;;;;;;;;5030756;28;20153;-32
2021/12/22 00:22:56;;;;;;;1.73;1.15;;;;;;;;;;5022692;28;20071;-30
2021/12/22 00:25:25;;;;;;;2.28;1.40;;;;;;;;;;5023122;28;20032;-31
2021/12/22 00:27:51;;;;;;;2.25;1.42;;;;;;;;;;5021817;28;20040;-32
2021/12/22 00:30:17;;;;;;;2.28;1.50;;;;;;;;;;5023171;28;20113;-30
2021/12/22 00:32:50;;;;;;;1.50;1.25;;;;;;;;;;5021745;28;20025;-29
2021/12/22 00:35:15;;;;;;;1.98;1.40;;;;;;;;;;5023070;28;20419;-30
2021/12/22 00:37:41;;;;;;;1.50;1.00;;;;;;;;;;5022888;28;20025;-32
2021/12/22 00:40:07;;;;;;;1.33;1.02;;;;;;;;;;5022867;28;20037;-28
2021/12/22 00:42:32;;;;;;;2.33;1.45;;;;;;;;;;5022528;28;20021;-30
2021/12/22 00:44:58;;;;;;;1.90;1.35;;;;;;;;;;5022666;28;20809;-30
2021/12/22 00:47:25;;;;;;;1.48;1.10;;;;;;;;;;5022411;28;20032;-33
2021/12/22 00:49:51;;;;;;;1.33;1.20;;;;;;;;;;5022332;28;20305;-28
2021/12/22 00:52:16;;;;;;;1.30;1.15;;;;;;;;;;5022638;28;20025;-28
2021/12/22 00:54:42;;;;;;;1.20;0.82;;;;;;;;;;5022140;28;20033;-35
2021/12/22 00:57:09;;;;;;;1.70;1.20;;;;;;;;;;5022333;28;20045;-34
2021/12/22 00:59:35;;;;;;;1.85;1.25;;;;;;;;;;5023194;28;20028;-32
2021/12/22 01:02:02;;;;;;;2.00;1.30;;;;;;;;;;5022410;28;20459;-33
2021/12/22 01:04:27;;;;;;;1.70;1.10;;;;;;;;;;5022743;28;20025;-30
2021/12/22 01:06:53;;;;;;;1.42;1.23;;;;;;;;;;5022630;28;20573;-30
2021/12/22 01:09:19;;;;;;;1.55;1.10;;;;;;;;;;5022727;28;20063;-32
2021/12/22 01:11:44;;;;;;;1.50;1.10;;;;;;;;;;5042263;28;20017;-30
2021/12/22 01:14:10;;;;;;;1.40;1.08;;;;;;;;;;5045909;28;20491;-31
2021/12/22 01:16:36;;;;;;;1.05;0.85;;;;;;;;;;5045482;28;20419;-35
2021/12/22 01:19:06;;;;;;;1.00;0.90;;;;;;;;;;5037857;28;20037;-28
2021/12/22 01:21:41;;;;;;;1.52;0.90;;;;;;;;;;5045638;28;20632;-34
2021/12/22 01:24:28;;;;;;;1.20;1.00;;;;;;;;;;5045503;28;20021;-33
2021/12/22 01:27:03;;;;;;;1.40;1.10;;;;;;;;;;5045615;28;20051;-35
2021/12/22 01:29:28;;;;;;;1.30;1.17;;;;;;;;;;5045872;28;20037;-32
2021/12/22 01:31:56;;;;;;;1.15;0.95;;;;;;;;;;5045292;28;20543;-32
2021/12/22 01:34:22;;;;;;;1.33;1.10;;;;;;;;;;5045855;28;20033;-30
2021/12/22 01:36:47;;;;;;;1.80;1.20;;;;;;;;;;5026849;28;20044;-30
2021/12/22 01:39:13;;;;;;;1.40;1.13;;;;;;;;;;5025965;28;20044;-30
2021/12/22 01:41:38;;;;;;;1.70;1.02;;;;;;;;;;5025854;28;20033;-34
2021/12/22 01:44:05;;;;;;;1.20;1.10;;;;;;;;;;5024841;28;20053;-28
2021/12/22 01:49:10;;;;;;;1.27;0.90;;;;;;;;;;5025370;28;20036;-31
2021/12/22 01:51:51;;;;;;;0.98;0.82;;;;;;;;;;5025604;28;20029;-33
2021/12/22 01:54:20;;;;;;;0.88;0.80;;;;;;;;;;5025320;28;20030;-32
2021/12/22 01:56:46;;;;;;;1.27;0.80;;;;;;;;;;5024775;28;20046;-30
2021/12/22 01:59:12;;;;;;;1.38;1.00;;;;;;;;;;5025211;28;20075;-31
2021/12/22 02:01:37;;;;;;;0.98;0.80;;;;;;;;;;5025556;28;20484;-34
2021/12/22 02:04:04;;;;;;;1.17;0.93;;;;;;;;;;5024900;28;20108;-34
2021/12/22 02:06:30;;;;;;;1.35;1.10;;;;;;;;;;5025882;28;20483;-32
2021/12/22 02:08:55;;;;;;;1.20;0.90;;;;;;;;;;5025110;28;20029;-31
2021/12/22 02:11:21;;;;;;;1.65;1.00;;;;;;;;;;5041917;28;20434;-30
2021/12/22 02:13:51;;;;;;;1.27;1.05;;;;;;;;;;5045018;28;20025;-33
2021/12/22 02:16:20;;;;;;;1.17;0.80;;;;;;;;;;5044716;28;20033;-30
2021/12/22 02:18:48;;;;;;;1.75;1.10;;;;;;;;;;5044815;28;20071;-31
2021/12/22 02:21:15;;;;;;;1.10;0.90;;;;;;;;;;5024594;28;20033;-31
2021/12/22 02:23:40;;;;;;;1.25;1.00;;;;;;;;;;5024605;28;20033;-30
2021/12/22 02:26:20;;;;;;;1.33;1.08;;;;;;;;;;5024097;28;20061;-33
2021/12/22 02:28:53;;;;;;;0.95;0.80;;;;;;;;;;5024835;28;20029;-29
2021/12/22 02:31:20;;;;;;;1.20;0.98;;;;;;;;;;5024966;28;20022;-32
2021/12/22 02:33:48;;;;;;;1.83;1.08;;;;;;;;;;5024359;28;20037;-34
2021/12/22 02:38:44;;;;;;;1.73;1.13;;;;;;;;;;5024659;28;20056;-32
2021/12/22 02:41:12;;;;;;;1.17;1.02;;;;;;;;;;5024233;28;20496;-30
2021/12/22 02:43:45;;;;;;;1.10;1.00;;;;;;;;;;5023977;28;20025;-30
2021/12/22 02:46:11;;;;;;;1.00;0.88;;;;;;;;;;5024527;28;20103;-31
2021/12/22 02:48:36;;;;;;;1.45;1.00;;;;;;;;;;5024192;28;20041;-32
2021/12/22 02:51:02;;;;;;;1.20;1.00;;;;;;;;;;5024541;28;20516;-32
2021/12/22 02:54:02;;;;;;;1.10;1.00;;;;;;;;;;5023832;28;20025;-31
2021/12/22 02:59:09;;;;;;;1.20;1.10;;;;;;;;;;5023734;28;20053;-32
2021/12/22 03:04:09;;;;;;;1.27;0.75;;;;;;;;;;5024174;28;20511;-34
2021/12/22 03:06:48;;;;;;;1.35;1.00;;;;;;;;;;5023860;28;20021;-29
2021/12/22 03:09:23;;;;;;;0.77;0.70;;;;;;;;;;5024106;28;20037;-29
2021/12/22 03:11:49;;;;;;;1.30;0.90;;;;;;;;;;5023860;28;20040;-32
2021/12/22 03:14:15;;;;;;;1.20;0.70;;;;;;;;;;5024016;28;20029;-34
2021/12/22 03:16:44;;;;;;;0.95;0.70;;;;;;;;;;5024178;28;20045;-31
2021/12/22 03:19:10;;;;;;;0.90;0.68;;;;;;;;;;5024442;28;20029;-31
2021/12/22 03:21:37;;;;;;;1.08;0.93;;;;;;;;;;5043786;28;20036;-31
2021/12/22 03:24:03;;;;;;;2.25;0.85;;;;;;;;;;5043342;28;20056;-32
2021/12/22 03:26:29;;;;;;;0.93;0.80;;;;;;;;;;5043828;28;20036;-32
2021/12/22 03:28:54;;;;;;;1.30;0.90;;;;;;;;;;5043359;28;20173;-35
2021/12/22 03:31:20;;;;;;;1.08;0.93;;;;;;;;;;5043489;28;20051;-33
2021/12/22 03:33:45;;;;;;;1.40;0.90;;;;;;;;;;5043076;28;20082;-31
2021/12/22 03:36:11;;;;;;;1.13;0.90;;;;;;;;;;5042383;28;20035;-31
2021/12/22 03:38:37;;;;;;;0.93;0.80;;;;;;;;;;5042862;28;20025;-36
2021/12/22 03:41:04;;;;;;;0.98;0.73;;;;;;;;;;5042680;28;20402;-29
2021/12/22 03:43:29;;;;;;;1.00;0.90;;;;;;;;;;5043678;28;20021;-30
2021/12/22 03:45:55;;;;;;;0.73;0.70;;;;;;;;;;5043194;28;20094;-33
2021/12/22 03:48:21;;;;;;;0.77;0.65;;;;;;;;;;5043127;28;20029;-30
2021/12/22 03:50:47;;;;;;;0.73;0.60;;;;;;;;;;5042968;28;20087;-32
2021/12/22 03:53:12;;;;;;;1.02;0.70;;;;;;;;;;5043425;28;20033;-34
2021/12/22 03:55:38;;;;;;;0.98;0.60;;;;;;;;;;5042232;28;20815;-29
2021/12/22 03:58:04;;;;;;;0.70;0.60;;;;;;;;;;5042634;28;20045;-30
2021/12/22 04:00:30;;;;;;;0.88;0.68;;;;;;;;;;5043147;28;20086;-33
2021/12/22 04:02:56;;;;;;;0.70;0.60;;;;;;;;;;5043233;28;20186;-29
2021/12/22 04:05:22;;;;;;;0.70;0.63;;;;;;;;;;5043109;28;20539;-31
2021/12/22 04:07:47;;;;;;;0.95;0.70;;;;;;;;;;5042673;28;20025;-30
2021/12/22 04:10:20;;;;;;;0.80;0.70;;;;;;;;;;5043041;28;20050;-31
2021/12/22 04:12:47;;;;;;;1.00;0.75;;;;;;;;;;5043062;28;20029;-34
2021/12/22 04:15:12;;;;;;;0.70;0.60;;;;;;;;;;5042531;28;20503;-30
2021/12/22 04:17:37;;;;;;;1.00;0.88;;;;;;;;;;5042827;28;20035;-30
2021/12/22 04:20:03;;;;;;;0.98;0.70;;;;;;;;;;5031226;28;20037;-31
2021/12/22 04:22:29;;;;;;;0.95;0.75;;;;;;;;;;5022609;28;20033;-30
2021/12/22 04:24:54;;;;;;;0.75;0.70;;;;;;;;;;5023001;28;20048;-32
2021/12/22 04:27:20;;;;;;;1.27;0.90;;;;;;;;;;5022960;28;20060;-32
2021/12/22 04:29:45;;;;;;;0.90;0.60;;;;;;;;;;5022498;28;20025;-33
2021/12/22 04:32:11;;;;;;;0.63;0.63;;;;;;;;;;5022706;28;20033;-32
2021/12/22 04:34:36;;;;;;;0.95;0.55;;;;;;;;;;5022802;28;20045;-30
2021/12/22 04:37:02;;;;;;;0.85;0.70;;;;;;;;;;5022491;28;20472;-30
2021/12/22 04:39:28;;;;;;;0.70;0.60;;;;;;;;;;5022957;28;20033;-31
2021/12/22 04:41:54;;;;;;;0.70;0.60;;;;;;;;;;5022767;28;20471;-33
2021/12/22 04:44:19;;;;;;;0.90;0.70;;;;;;;;;;5030789;28;20543;-30
2021/12/22 04:46:45;;;;;;;0.80;0.70;;;;;;;;;;5032005;28;20038;-28
2021/12/22 04:49:11;;;;;;;0.85;0.75;;;;;;;;;;5025825;28;20055;-33
2021/12/22 04:51:41;;;;;;;0.80;0.70;;;;;;;;;;5028621;28;20150;-30
2021/12/22 04:54:18;;;;;;;1.00;0.50;;;;;;;;;;5026575;28;20041;-30
2021/12/22 04:56:44;;;;;;;0.52;0.50;;;;;;;;;;5033779;28;20531;-35
2021/12/22 04:59:10;;;;;;;1.88;0.80;;;;;;;;;;5033243;28;20037;-32
2021/12/22 05:01:35;;;;;;;2.40;0.45;;;;;;;;;;5026910;28;20080;-32
2021/12/22 05:04:01;;;;;;;1.13;0.63;;;;;;;;;;5042896;28;20568;-31
2021/12/22 05:06:26;;;;;;;0.88;0.68;;;;;;;;;;5046244;28;20043;-33
2021/12/22 05:08:52;;;;;;;0.52;0.47;;;;;;;;;;5039224;28;20040;-33
2021/12/22 05:11:17;;;;;;;0.65;0.52;;;;;;;;;;5040421;28;20174;-34
2021/12/22 05:13:43;;;;;;;1.55;0.32;;;;;;;;;;5046292;28;20029;-29
2021/12/22 05:16:16;;;;;;;0.75;0.60;;;;;;;;;;5045640;28;20025;-28
2021/12/22 05:19:15;;;;;;;0.52;0.40;;;;;;;;;;5044206;28;20035;-33
2021/12/22 05:21:33;;;;;;;0.90;0.65;;;;;;;;;;5046091;28;20043;-30
2021/12/22 05:23:58;;;;;;;0.98;0.68;;;;;;;;;;5045611;28;20021;-32
2021/12/22 05:26:25;;;;;;;0.77;0.60;;;;;;;;;;5038676;28;20517;-31
2021/12/22 05:28:51;;;;;;;1.40;1.00;;;;;;;;;;5026520;28;20056;-33
2021/12/22 05:31:16;;;;;;;0.80;0.70;;;;;;;;;;5025476;28;20029;-30
2021/12/22 05:33:42;;;;;;;0.68;0.55;;;;;;;;;;5025482;28;20033;-33
2021/12/22 05:36:07;;;;;;;0.82;0.75;;;;;;;;;;5025863;28;20128;-30
2021/12/22 05:38:33;;;;;;;0.98;0.70;;;;;;;;;;5026371;28;20029;-29
2021/12/22 05:40:58;;;;;;;0.77;0.60;;;;;;;;;;5032166;28;20029;-30
2021/12/22 05:43:24;;;;;;;0.85;0.63;;;;;;;;;;5029787;28;20034;-29
2021/12/22 05:45:49;;;;;;;0.82;0.60;;;;;;;;;;5039293;28;20124;-35
2021/12/22 05:48:15;;;;;;;0.73;0.60;;;;;;;;;;5040094;28;20022;-34
2021/12/22 05:50:45;;;;;;;1.27;0.68;;;;;;;;;;5025292;28;20450;-31
2021/12/22 05:53:11;;;;;;;1.33;0.75;;;;;;;;;;5026162;28;20415;-29
2021/12/22 05:55:36;;;;;;;1.83;0.68;;;;;;;;;;5034229;28;20037;-29
2021/12/22 05:58:02;;;;;;;2.00;0.80;;;;;;;;;;5031566;28;20060;-32
2021/12/22 06:00:27;;;;;;;2.78;0.50;;;;;;;;;;5025242;28;20060;-30
2021/12/22 06:02:53;;;;;;;4.75;1.00;;;;;;;;;;5026450;28;20033;-30
2021/12/22 06:05:19;;;;;;;6.45;1.00;;;;;;;;;;5035649;28;20036;-32
2021/12/22 06:07:45;;;;;;;6.18;1.17;;;;;;;;;;5032987;28;20060;-31
2021/12/22 06:10:10;;;;;;;2.88;1.25;;;;;;;;;;5042003;28;20029;-34
2021/12/22 06:12:36;;;;;;;10.70;1.80;;;;;;;;;;5042201;28;20091;-29
2021/12/22 06:15:02;;;;;;;12.55;1.52;;;;;;;;;;5039636;28;20534;-30
2021/12/22 06:17:27;;;;;;;8.02;1.35;;;;;;;;;;5038247;28;20044;-28
2021/12/22 06:19:53;;;;;;;7.00;1.35;;;;;;;;;;5037391;28;20068;-29
2021/12/22 06:22:19;;;;;;;6.88;1.10;;;;;;;;;;5034920;28;20520;-31
2021/12/22 06:24:44;;;;;;;4.60;1.20;;;;;;;;;;5038621;28;20534;-28
2021/12/22 06:27:10;;;;;;;6.18;1.10;;;;;;;;;;5040012;28;20018;-32
2021/12/22 06:29:35;;;;;;;4.82;1.30;;;;;;;;;;5025824;28;20400;-33
2021/12/22 06:32:01;;;;;;;4.00;1.42;;;;;;;;;;5025705;28;20052;-32
2021/12/22 06:34:26;;;;;;;7.95;1.30;;;;;;;;;;5025481;28;20408;-34
2021/12/22 06:36:52;;;;;;;6.38;1.38;;;;;;;;;;5026010;28;20025;-30
2021/12/22 06:39:18;;;;;;;3.55;1.00;;;;;;;;;;5026080;28;20554;-31
2021/12/22 06:41:44;;;;;;;3.63;1.15;;;;;;;;;;5026567;28;20080;-31
2021/12/22 06:44:10;;;;;;;4.40;1.38;;;;;;;;;;5024381;28;20025;-32
2021/12/22 06:46:35;;;;;;;4.45;1.60;;;;;;;;;;5026061;28;20026;-30
2021/12/22 06:49:01;;;;;;;2.75;1.33;;;;;;;;;;5026780;28;20030;-33
2021/12/22 06:51:26;;;;;;;4.75;1.52;;;;;;;;;;5031677;28;20044;-28
2021/12/22 06:53:52;;;;;;;3.60;1.30;;;;;;;;;;5046287;28;20136;-31
2021/12/22 06:56:17;;;;;;;1.60;1.17;;;;;;;;;;5046301;28;20028;-33
2021/12/22 06:58:43;;;;;;;1.67;1.33;;;;;;;;;;5046155;28;20041;-31
2021/12/22 07:01:08;;;;;;;2.70;0.90;;;;;;;;;;5046227;28;20587;-32
2021/12/22 07:03:34;;;;;;;5.18;1.48;;;;;;;;;;5046142;28;20537;-30
2021/12/22 07:05:59;;;;;;;2.50;1.20;;;;;;;;;;5046259;28;20039;-29
2021/12/22 07:08:25;;;;;;;2.25;1.48;;;;;;;;;;5046023;28;20044;-29
2021/12/22 07:10:51;;;;;;;3.00;1.20;;;;;;;;;;5045782;28;20024;-30
2021/12/22 07:13:17;;;;;;;3.88;1.10;;;;;;;;;;5044899;28;20025;-30
2021/12/22 07:15:45;;;;;;;4.88;1.50;;;;;;;;;;5045688;28;20044;-31
2021/12/22 07:18:11;;;;;;;3.67;1.60;;;;;;;;;;5044688;28;20025;-28
2021/12/22 07:20:37;;;;;;;5.25;1.23;;;;;;;;;;5026484;28;20144;-33
2021/12/22 07:23:03;;;;;;;2.08;1.30;;;;;;;;;;5025938;28;20520;-29
2021/12/22 07:25:28;;;;;;;3.08;1.60;;;;;;;;;;5026250;28;20043;-30
2021/12/22 07:27:54;;;;;;;2.53;1.30;;;;;;;;;;5025662;28;20025;-31
2021/12/22 07:30:19;;;;;;;4.20;1.63;;;;;;;;;;5025310;28;20025;-33
2021/12/22 07:32:45;;;;;;;4.03;1.83;;;;;;;;;;5025847;28;20478;-29
2021/12/22 07:35:30;;;;;;;5.22;1.80;;;;;;;;;;5025428;28;20032;-30
2021/12/22 07:38:27;;;;;;;4.72;1.90;;;;;;;;;;5025312;28;20542;-32
2021/12/22 07:40:53;;;;;;;4.40;2.08;;;;;;;;;;5025864;28;20558;-29
2021/12/22 07:43:18;;;;;;;4.35;2.03;;;;;;;;;;5025483;28;20033;-29
2021/12/22 07:45:43;;;;;;;3.53;2.13;;;;;;;;;;5024623;28;20040;-31
2021/12/22 07:48:09;;;;;;;2.83;1.80;;;;;;;;;;5025053;28;20029;-34
2021/12/22 07:50:35;;;;;;;3.17;1.98;;;;;;;;;;5025558;28;20132;-30
2021/12/22 07:53:00;;;;;;;3.88;1.95;;;;;;;;;;5024523;28;20511;-32
2021/12/22 07:55:26;;;;;;;3.53;1.98;;;;;;;;;;5022665;28;20411;-34
2021/12/22 07:57:51;;;;;;;3.78;2.00;;;;;;;;;;5028729;28;20135;-30
2021/12/22 08:00:17;;;;;;;3.33;2.10;;;;;;;;;;5044055;28;20037;-31
2021/12/22 08:02:43;;;;;;;3.85;2.08;;;;;;;;;;5036603;28;20495;-31
2021/12/22 08:05:08;;;;;;;6.57;2.55;;;;;;;;;;5024934;28;20167;-34
2021/12/22 08:07:34;;;;;;;4.68;2.42;;;;;;;;;;5024222;28;20029;-31
2021/12/22 08:10:01;;;;;;;3.22;2.00;;;;;;;;;;5025180;28;20079;-32
2021/12/22 08:12:26;;;;;;;5.07;2.40;;;;;;;;;;5025245;28;20025;-32
2021/12/22 08:14:51;;;;;;;3.97;2.55;;;;;;;;;;5024312;28;20030;-30
2021/12/22 08:17:17;;;;;;;4.00;2.28;;;;;;;;;;5025234;28;20112;-33
2021/12/22 08:19:43;;;;;;;4.63;2.58;;;;;;;;;;5025256;28;20040;-31
2021/12/22 08:22:09;;;;;;;6.07;2.70;;;;;;;;;;5024749;28;20034;-33
2021/12/22 08:24:37;;;;;;;6.47;2.80;;;;;;;;;;5025167;28;20196;-34
2021/12/22 08:27:02;;;;;;;4.93;2.80;;;;;;;;;;5024826;28;20025;-32
2021/12/22 08:29:28;;;;;;;4.63;2.70;;;;;;;;;;5024500;28;20088;-29
2021/12/22 08:31:53;;;;;;;5.63;2.55;;;;;;;;;;5034699;28;20025;-30
2021/12/22 08:34:26;;;;;;;3.78;2.42;;;;;;;;;;5035097;28;20020;-30
2021/12/22 08:39:36;;;;;;;6.07;3.13;;;;;;;;;;5032946;28;20043;-33
2021/12/22 08:42:01;;;;;;;4.18;2.67;;;;;;;;;;5040154;28;20116;-32
2021/12/22 08:44:27;;;;;;;4.97;3.13;;;;;;;;;;5030420;28;20022;-35
2021/12/22 08:46:52;;;;;;;6.00;3.00;;;;;;;;;;5034818;28;20025;-29
2021/12/22 08:49:19;;;;;;;4.00;2.90;;;;;;;;;;5034238;28;20496;-29
2021/12/22 08:51:44;;;;;;;3.88;2.90;;;;;;;;;;5033426;28;20028;-32
2021/12/22 08:54:10;;;;;;;4.95;2.95;;;;;;;;;;5032541;28;20021;-29
2021/12/22 08:56:35;;;;;;;7.32;3.47;;;;;;;;;;5034297;28;20017;-30
2021/12/22 08:59:02;;;;;;;4.00;2.75;;;;;;;;;;5038860;28;20107;-33
2021/12/22 09:01:28;;;;;;;4.15;2.90;;;;;;;;;;5037576;28;20044;-28
2021/12/22 09:03:53;;;;;;;5.45;3.65;;;;;;;;;;5042788;28;20029;-33
2021/12/22 09:06:19;;;;;;;5.10;2.90;;;;;;;;;;5042472;28;20032;-30
2021/12/22 09:08:44;;;;;;;5.10;3.05;;;;;;;;;;5036549;28;20029;-31
2021/12/22 09:11:10;;;;;;;4.05;3.10;;;;;;;;;;5030011;28;20565;-30
2021/12/22 09:13:37;;;;;;;4.82;3.00;;;;;;;;;;5038450;28;20052;-31
2021/12/22 09:16:03;;;;;;;4.15;2.78;;;;;;;;;;5035539;28;20459;-32
2021/12/22 09:18:28;;;;;;;6.13;3.72;;;;;;;;;;5028934;28;20040;-28
2021/12/22 09:20:54;;;;;;;5.05;3.28;;;;;;;;;;5028473;28;20025;-28
2021/12/22 09:23:19;;;;;;;6.13;3.75;;;;;;;;;;5024384;28;20100;-28
2021/12/22 09:25:45;;;;;;;4.50;3.38;;;;;;;;;;5024346;28;20025;-31
2021/12/22 09:28:12;;;;;;;5.63;3.35;;;;;;;;;;5024225;28;20032;-32
2021/12/22 09:30:39;;;;;;;5.63;3.15;;;;;;;;;;5026567;28;20029;-29
2021/12/22 09:33:06;;;;;;;5.88;3.40;;;;;;;;;;5029488;28;20016;-28
2021/12/22 09:35:31;;;;;;;4.80;3.42;;;;;;;;;;5031885;28;20162;-32
2021/12/22 09:37:57;;;;;;;5.88;3.20;;;;;;;;;;5030129;28;20110;-33
2021/12/22 09:40:22;;;;;;;5.20;3.55;;;;;;;;;;5032856;28;20041;-32
2021/12/22 09:42:48;;;;;;;4.63;3.55;;;;;;;;;;5041516;28;20545;-29
2021/12/22 09:45:15;;;;;;;5.70;3.55;;;;;;;;;;5039424;28;20021;-31
2021/12/22 09:48:00;;;;;;;4.57;3.28;;;;;;;;;;5047767;28;20032;-30
2021/12/22 09:50:39;;;;;;;4.40;3.42;;;;;;;;;;5047878;28;20021;-33
2021/12/22 09:53:04;;;;;;;6.28;3.85;;;;;;;;;;5047592;28;20036;-30
2021/12/22 09:55:33;;;;;;;5.45;3.67;;;;;;;;;;5047398;28;20025;-29
2021/12/22 09:58:03;;;;;;;4.88;3.42;;;;;;;;;;5047178;28;20045;-29
2021/12/22 10:00:29;;;;;;;5.22;3.70;;;;;;;;;;5046914;28;20025;-31
2021/12/22 10:02:55;;;;;;;5.85;3.33;;;;;;;;;;5047234;28;20025;-31
2021/12/22 10:05:21;;;;;;;4.85;3.40;;;;;;;;;;5047511;28;20030;-35
2021/12/22 10:08:23;;;;;;;5.38;3.70;;;;;;;;;;5046967;28;20114;-32
2021/12/22 10:11:07;;;;;;;5.43;3.78;;;;;;;;;;5046369;28;20048;-31
2021/12/22 10:13:33;;;;;;;6.90;3.70;;;;;;;;;;5046842;28;20090;-28
2021/12/22 10:15:59;;;;;;;5.13;3.30;;;;;;;;;;5046736;28;20021;-34
2021/12/22 10:18:26;;;;;;;5.38;3.70;;;;;;;;;;5045080;28;20040;-32
2021/12/22 10:20:53;;;;;;;5.65;3.88;;;;;;;;;;5032672;28;20079;-31
2021/12/22 10:23:29;;;;;;;6.20;3.90;;;;;;;;;;5030141;28;20037;-29
2021/12/22 10:26:05;;;;;;;4.90;3.63;;;;;;;;;;5037416;28;20025;-29
2021/12/22 10:28:44;;;;;;;6.30;3.88;;;;;;;;;;5046632;28;20039;-29
2021/12/22 10:31:09;;;;;;;5.65;3.92;;;;;;;;;;5045145;28;20027;-30
2021/12/22 10:33:37;;;;;;;4.60;3.53;;;;;;;;;;5043944;28;20119;-35
2021/12/22 10:36:12;;;;;;;6.20;4.18;;;;;;;;;;5043698;28;20025;-29
2021/12/22 10:38:37;;;;;;;6.18;3.92;;;;;;;;;;5045535;28;20116;-31
2021/12/22 10:41:10;;;;;;;6.20;4.35;;;;;;;;;;5046456;28;20108;-33
2021/12/22 10:43:41;;;;;;;6.05;3.97;;;;;;;;;;5044646;28;20025;-32
2021/12/22 10:46:07;;;;;;;6.05;3.90;;;;;;;;;;5045275;28;20818;-33
2021/12/22 10:51:28;;;;;;;6.85;3.85;;;;;;;;;;5045486;28;20090;-34
2021/12/22 10:53:53;;;;;;;5.80;3.90;;;;;;;;;;5045700;28;20093;-31
2021/12/22 10:56:23;;;;;;;5.10;4.03;;;;;;;;;;5045261;28;20048;-30
2021/12/22 10:58:58;;;;;;;5.50;4.10;;;;;;;;;;5043631;28;20049;-30
2021/12/22 11:01:24;;;;;;;6.05;4.43;;;;;;;;;;5044127;28;20025;-31
2021/12/22 11:03:53;;;;;;;6.03;4.10;;;;;;;;;;5044401;28;20082;-30
2021/12/22 11:06:24;;;;;;;7.00;4.57;;;;;;;;;;5045741;28;20029;-32
2021/12/22 11:09:08;;;;;;;6.82;4.55;;;;;;;;;;5043651;28;20098;-30
2021/12/22 11:11:38;;;;;;;8.63;4.38;;;;;;;;;;5035054;28;20029;-31
2021/12/22 11:14:24;;;;;;;6.50;4.35;;;;;;;;;;5043900;28;20017;-30
2021/12/22 11:17:12;;;;;;;5.57;4.38;;;;;;;;;;5044750;28;20111;-33
2021/12/22 11:20:01;;;;;;;5.63;4.18;;;;;;;;;;5026167;28;20033;-34
2021/12/22 11:23:16;;;;;;;5.88;4.35;;;;;;;;;;5026186;28;20038;-31
2021/12/22 11:25:36;;;;;;;5.32;3.95;;;;;;;;;;5044041;28;20162;-31
2021/12/22 11:28:01;;;;;;;6.82;4.60;;;;;;;;;;5042470;28;20495;-32
2021/12/22 11:30:27;;;;;;;6.63;4.32;;;;;;;;;;5043984;28;20032;-33
2021/12/22 11:32:54;;;;;;;6.13;4.55;;;;;;;;;;5045689;28;20012;-30
2021/12/22 11:35:20;;;;;;;6.88;4.50;;;;;;;;;;5045270;28;20025;-34
2021/12/22 11:37:45;;;;;;;8.00;4.50;;;;;;;;;;5027517;28;20063;-29
2021/12/22 11:40:12;;;;;;;6.45;4.60;;;;;;;;;;5045245;28;20047;-32
2021/12/22 11:42:37;;;;;;;5.80;4.35;;;;;;;;;;5033539;28;20025;-31
2021/12/22 11:45:29;;;;;;;6.53;4.63;;;;;;;;;;5043049;28;20392;-31
2021/12/22 11:47:57;;;;;;;6.05;4.38;;;;;;;;;;5044050;28;20041;-28
2021/12/22 11:50:25;;;;;;;5.22;4.15;;;;;;;;;;5044162;28;20511;-30
2021/12/22 11:53:06;;;;;;;5.47;4.28;;;;;;;;;;5044230;28;20142;-30
2021/12/22 11:55:42;;;;;;;6.88;4.85;;;;;;;;;;5045068;28;20467;-28
2021/12/22 11:58:19;;;;;;;7.00;4.70;;;;;;;;;;5044074;28;20644;-33
2021/12/22 12:00:54;;;;;;;5.95;4.47;;;;;;;;;;5044866;28;20029;-31
2021/12/22 12:03:28;;;;;;;8.32;4.57;;;;;;;;;;5045456;28;20128;-33
2021/12/22 12:06:11;;;;;;;8.85;4.53;;;;;;;;;;5045179;28;20041;-29
2021/12/22 12:08:55;;;;;;;6.32;4.43;;;;;;;;;;5045403;28;20033;-35
2021/12/22 12:11:34;;;;;;;7.13;5.30;;;;;;;;;;5044944;28;20676;-30
2021/12/22 12:14:10;;;;;;;6.78;5.07;;;;;;;;;;5044880;28;20037;-28
2021/12/22 12:22:32;;;;;;;8.07;5.82;;;;;;;;;;5030249;28;20063;-30
2021/12/22 12:25:32;;;;;;;9.43;6.35;;;;;;;;;;5044893;28;20032;-30
2021/12/22 12:27:57;;;;;;;18.75;7.32;;;;;;;;;;5039148;28;20052;-35
2021/12/22 12:30:24;;;;;;;15.65;7.45;;;;;;;;;;5043681;28;20033;-32
2021/12/22 12:32:49;;;;;;;20.95;9.23;;;;;;;;;;5044450;28;20100;-32
2021/12/22 12:35:18;;;;;;;24.50;11.20;;;;;;;;;;5044722;28;20595;-30
2021/12/22 12:38:04;;;;;;;23.75;11.25;;;;;;;;;;5024912;28;20029;-29
2021/12/22 12:40:58;;;;;;;24.45;12.77;;;;;;;;;;5025128;28;20137;-31
2021/12/22 12:43:42;;;;;;;29.60;14.73;;;;;;;;;;5023379;28;20033;-34
2021/12/22 12:46:29;;;;;;;36.50;18.52;;;;;;;;;;5024570;28;20059;-33
2021/12/22 12:49:06;;;;;;;37.88;18.65;;;;;;;;;;5024678;28;20531;-32
2021/12/22 12:51:41;;;;;;;41.92;20.85;;;;;;;;;;5024582;28;20038;-35
2021/12/22 12:54:16;;;;;;;39.63;19.88;;;;;;;;;;5024860;28;20076;-32
2021/12/22 12:56:55;;;;;;;41.10;20.88;;;;;;;;;;5024470;28;20447;-34
2021/12/22 12:59:39;;;;;;;37.38;20.88;;;;;;;;;;5024461;28;20040;-29
2021/12/22 13:02:05;;;;;;;42.55;21.75;;;;;;;;;;5024581;28;20053;-29
2021/12/22 13:04:34;;;;;;;43.47;21.60;;;;;;;;;;5024776;28;20103;-34
2021/12/22 13:07:00;;;;;;;40.47;22.15;;;;;;;;;;5024610;28;20026;-32
2021/12/22 13:09:32;;;;;;;41.58;23.08;;;;;;;;;;5027152;28;20039;-35
2021/12/22 13:12:03;;;;;;;41.97;23.10;;;;;;;;;;5033869;28;20088;-31
2021/12/22 13:17:17;;;;;;;41.55;24.30;;;;;;;;;;5027212;28;20035;-33
2021/12/22 13:19:43;;;;;;;39.78;23.20;;;;;;;;;;5028371;28;20052;-31
2021/12/22 13:22:29;;;;;;;42.70;23.45;;;;;;;;;;5027834;28;20056;-31
2021/12/22 13:25:18;;;;;;;42.50;24.20;;;;;;;;;;5037479;28;20835;-28
2021/12/22 13:28:10;;;;;;;40.15;23.92;;;;;;;;;;5028246;28;20202;-32
2021/12/22 13:30:45;;;;;;;40.83;23.90;;;;;;;;;;5038281;28;20562;-29
2021/12/22 13:33:21;;;;;;;42.13;25.17;;;;;;;;;;5046764;28;20170;-35
2021/12/22 13:35:50;;;;;;;43.97;25.35;;;;;;;;;;5047885;28;20025;-31
2021/12/22 13:38:23;;;;;;;42.45;24.95;;;;;;;;;;5047049;28;20028;-30
2021/12/22 13:40:56;;;;;;;42.65;24.70;;;;;;;;;;5047078;28;20041;-31
2021/12/22 13:43:29;;;;;;;42.55;23.77;;;;;;;;;;5047499;28;20068;-30
2021/12/22 13:46:16;;;;;;;43.38;24.98;;;;;;;;;;5047339;28;20040;-35
2021/12/22 13:48:50;;;;;;;43.55;25.42;;;;;;;;;;5046912;28;20044;-29
2021/12/22 13:51:18;;;;;;;40.05;24.40;;;;;;;;;;5046008;28;20037;-30
2021/12/22 13:53:44;;;;;;;42.40;24.92;;;;;;;;;;5043396;28;20025;-33
2021/12/22 13:56:11;;;;;;;43.78;25.25;;;;;;;;;;5043639;28;20032;-30
2021/12/22 13:58:40;;;;;;;42.33;25.25;;;;;;;;;;5044830;28;20041;-29
2021/12/22 14:01:34;;;;;;;41.97;25.10;;;;;;;;;;5046041;28;20037;-32
2021/12/22 14:04:00;;;;;;;41.15;25.33;;;;;;;;;;5045127;28;20091;-33
2021/12/22 14:06:28;;;;;;;40.58;24.08;;;;;;;;;;5046290;28;20044;-28
2021/12/22 14:09:17;;;;;;;43.80;24.63;;;;;;;;;;5047115;28;20064;-30
2021/12/22 14:11:45;;;;;;;39.67;23.83;;;;;;;;;;5046949;28;20515;-30
2021/12/22 14:14:25;;;;;;;37.90;24.73;;;;;;;;;;5047272;28;20035;-33
2021/12/22 14:17:03;;;;;;;40.65;24.25;;;;;;;;;;5044937;28;20037;-31
2021/12/22 14:19:38;;;;;;;41.28;24.00;;;;;;;;;;5034421;28;20040;-31
2021/12/22 14:22:06;;;;;;;39.22;25.25;;;;;;;;;;5033919;28;20612;-33
2021/12/22 14:24:36;;;;;;;36.58;23.25;;;;;;;;;;5034223;28;20032;-33
2021/12/22 14:27:02;;;;;;;39.25;24.90;;;;;;;;;;5038196;28;20071;-33
2021/12/22 14:29:29;;;;;;;36.95;22.88;;;;;;;;;;5027125;28;20033;-35
2021/12/22 14:32:04;;;;;;;39.13;23.65;;;;;;;;;;5026844;28;20049;-32
2021/12/22 14:34:30;;;;;;;40.05;23.52;;;;;;;;;;5026408;28;20033;-28
2021/12/22 14:36:57;;;;;;;43.70;23.60;;;;;;;;;;5033402;28;20108;-30
2021/12/22 14:39:39;;;;;;;38.17;24.63;;;;;;;;;;5026829;28;20042;-32
2021/12/22 14:42:28;;;;;;;36.87;23.20;;;;;;;;;;5034483;28;20021;-31
2021/12/22 14:45:17;;;;;;;41.13;23.40;;;;;;;;;;5035759;28;20179;-33
2021/12/22 14:47:43;;;;;;;39.58;25.20;;;;;;;;;;5037220;28;20036;-34
2021/12/22 14:50:15;;;;;;;40.28;24.20;;;;;;;;;;5034404;28;20056;-33
2021/12/22 14:52:54;;;;;;;35.88;23.13;;;;;;;;;;5045689;28;20029;-30
2021/12/22 14:55:38;;;;;;;39.25;24.35;;;;;;;;;;5046127;28;20047;-30
2021/12/22 14:58:04;;;;;;;36.78;24.27;;;;;;;;;;5045840;28;20053;-30
2021/12/22 15:00:30;;;;;;;39.13;23.30;;;;;;;;;;5046216;28;20153;-33
2021/12/22 15:02:55;;;;;;;36.72;23.70;;;;;;;;;;5033314;28;20167;-29
2021/12/22 15:05:21;;;;;;;38.70;23.80;;;;;;;;;;5026674;28;20041;-31
2021/12/22 15:07:46;;;;;;;45.33;23.60;;;;;;;;;;5028245;28;20451;-33
2021/12/22 15:10:12;;;;;;;36.28;22.15;;;;;;;;;;5037621;28;20414;-33
2021/12/22 15:12:37;;;;;;;36.72;23.25;;;;;;;;;;5045379;28;20029;-36
2021/12/22 15:15:04;;;;;;;37.65;24.67;;;;;;;;;;5045991;28;20116;-34